Time;durP1;ratioP1;P1;durP2;ratioP2;P2;SDS_P1;SDS_P2;PMS_P1;PMS_P2;Temp;Humidity;BMP_temperature;BMP_pressure;BME280_temperature;BME280_humidity;BME280_pressure;Samples;Min_cycle;Max_cycle;Signal;HPM_P1;HPM_P2
2022/05/24 00:00:56;;;;;;;8.70;4.45;;;;;;;15.47;97.59;92685.28;5049033;28;20048;-77
2022/05/24 00:03:23;;;;;;;7.40;4.78;;;;;;;15.55;97.61;92684.03;5049250;28;20072;-76
2022/05/24 00:05:50;;;;;;;7.13;4.88;;;;;;;15.62;97.23;92689.78;5049004;28;20447;-77
2022/05/24 00:08:17;;;;;;;8.65;5.38;;;;;;;15.54;97.73;92679.88;5049209;28;20508;-77
2022/05/24 00:10:44;;;;;;;8.27;5.18;;;;;;;15.57;97.35;92681.97;5048869;28;20045;-77
2022/05/24 00:13:11;;;;;;;6.35;4.68;;;;;;;15.61;97.32;92695.19;5048444;28;20480;-77
2022/05/24 00:15:40;;;;;;;5.80;4.15;;;;;;;15.59;96.45;92687.69;5046825;28;20049;-77
2022/05/24 00:18:09;;;;;;;7.43;4.47;;;;;;;15.61;96.26;92692.59;5048231;28;20045;-77
2022/05/24 00:20:40;;;;;;;6.90;4.60;;;;;;;15.60;95.89;92689.22;5048505;28;20045;-77
2022/05/24 00:23:07;;;;;;;6.68;4.68;;;;;;;15.63;95.63;92696.50;5048772;28;20046;-77
2022/05/24 00:25:37;;;;;;;5.40;4.07;;;;;;;15.65;96.28;92698.06;5048710;28;20103;-77
2022/05/24 00:28:06;;;;;;;6.45;4.20;;;;;;;15.59;95.52;92681.72;5046601;28;20037;-77
2022/05/24 00:30:33;;;;;;;12.40;4.95;;;;;;;15.59;95.71;92679.13;5044835;28;20041;-77
2022/05/24 00:33:02;;;;;;;8.18;4.15;;;;;;;15.60;97.38;92691.06;5047169;28;20053;-77
2022/05/24 00:35:29;;;;;;;8.68;4.55;;;;;;;15.54;97.61;92681.69;5047803;28;20653;-77
2022/05/24 00:37:56;;;;;;;5.95;4.03;;;;;;;15.47;98.41;92684.53;5046232;28;20040;-77
2022/05/24 00:40:33;;;;;;;7.13;4.43;;;;;;;15.46;99.01;92686.31;5048338;28;20041;-76
2022/05/24 00:43:03;;;;;;;7.03;4.47;;;;;;;15.45;100.00;92694.34;5046707;28;20804;-76
2022/05/24 00:45:32;;;;;;;7.63;4.47;;;;;;;15.35;100.00;92692.50;5046580;28;20056;-77
2022/05/24 00:48:05;;;;;;;8.25;4.63;;;;;;;15.09;100.00;92684.63;5046570;28;20657;-77
2022/05/24 00:50:37;;;;;;;6.65;4.70;;;;;;;15.02;100.00;92697.75;5046722;28;20056;-76
2022/05/24 00:53:08;;;;;;;8.80;4.75;;;;;;;14.87;100.00;92695.06;5048012;28;20144;-77
2022/05/24 00:55:43;;;;;;;9.73;5.25;;;;;;;14.97;100.00;92692.56;5047721;28;20056;-77
2022/05/24 00:58:16;;;;;;;11.77;5.93;;;;;;;15.03;100.00;92694.13;5047758;28;20110;-77
2022/05/24 01:00:43;;;;;;;10.13;5.10;;;;;;;15.03;100.00;92696.72;5048027;28;20048;-77
2022/05/24 01:03:12;;;;;;;9.52;5.72;;;;;;;14.91;100.00;92696.13;5047192;28;20072;-77
2022/05/24 01:05:39;;;;;;;8.68;5.30;;;;;;;14.90;100.00;92697.94;5042543;28;20053;-77
2022/05/24 01:08:06;;;;;;;6.63;4.70;;;;;;;14.92;100.00;92687.34;5049003;28;20051;-76
2022/05/24 01:10:37;;;;;;;6.35;4.78;;;;;;;15.17;100.00;92694.47;5048273;28;20052;-77
2022/05/24 01:13:09;;;;;;;8.20;4.65;;;;;;;15.27;100.00;92690.41;5045937;28;20041;-76
2022/05/24 01:15:37;;;;;;;8.88;5.35;;;;;;;15.42;100.00;92692.25;5046164;28;20056;-76
2022/05/24 01:18:05;;;;;;;7.15;4.50;;;;;;;15.54;100.00;92684.28;5044557;28;20450;-77
2022/05/24 01:20:33;;;;;;;7.40;5.15;;;;;;;15.66;99.47;92692.63;5047233;28;20048;-77
2022/05/24 01:23:26;;;;;;;7.18;4.97;;;;;;;15.73;99.25;92690.56;5046473;28;20056;-77
2022/05/24 01:25:59;;;;;;;7.13;4.65;;;;;;;15.79;97.13;92691.38;5041388;28;20057;-77
2022/05/24 01:28:34;;;;;;;7.32;4.15;;;;;;;15.79;96.93;92682.81;5044697;28;20055;-77
2022/05/24 01:31:02;;;;;;;7.72;4.85;;;;;;;15.91;96.83;92696.31;5045558;28;20407;-77
2022/05/24 01:36:15;;;;;;;7.00;4.70;;;;;;;15.92;96.11;92660.84;5044556;28;20092;-77
2022/05/24 01:38:47;;;;;;;8.75;4.50;;;;;;;16.02;96.72;92676.44;5044526;28;20091;-77
2022/05/24 01:41:19;;;;;;;7.97;4.28;;;;;;;15.96;97.86;92680.81;5045179;28;20084;-77
2022/05/24 01:43:50;;;;;;;7.03;4.90;;;;;;;15.90;96.23;92669.66;5046234;28;20048;-77
2022/05/24 01:46:21;;;;;;;8.13;5.55;;;;;;;15.95;96.28;92670.72;5046140;28;20056;-77
2022/05/24 01:48:52;;;;;;;7.25;5.07;;;;;;;15.96;96.18;92672.28;5046667;28;20045;-77
2022/05/24 01:51:23;;;;;;;6.97;4.40;;;;;;;15.88;96.08;92673.53;5046860;28;20099;-77
2022/05/24 01:53:53;;;;;;;9.25;4.93;;;;;;;15.95;96.28;92683.66;5046472;28;20479;-77
2022/05/24 01:56:26;;;;;;;9.52;4.85;;;;;;;15.92;97.11;92684.91;5046200;28;20048;-77
2022/05/24 01:58:58;;;;;;;7.47;4.57;;;;;;;15.86;97.37;92673.78;5046265;28;20435;-77
2022/05/24 02:01:35;;;;;;;6.10;4.13;;;;;;;15.63;97.04;92638.75;5046779;28;20434;-76
2022/05/24 02:04:02;;;;;;;6.47;4.45;;;;;;;15.85;97.91;92677.41;5048974;28;20053;-76
2022/05/24 02:06:30;;;;;;;7.25;4.10;;;;;;;15.69;96.67;92663.63;5049698;28;20144;-77
2022/05/24 02:08:57;;;;;;;7.13;4.00;;;;;;;15.81;97.99;92684.13;5052238;28;20597;-77
2022/05/24 02:11:26;;;;;;;5.70;4.32;;;;;;;15.84;97.17;92691.38;5051039;28;20041;-77
2022/05/24 02:13:59;;;;;;;5.85;4.40;;;;;;;15.86;98.06;92685.94;5051070;28;20056;-77
2022/05/24 02:16:30;;;;;;;5.93;4.55;;;;;;;15.80;99.16;92679.97;5050796;28;20497;-77
2022/05/24 02:18:58;;;;;;;6.90;4.43;;;;;;;15.86;98.35;92691.13;5050675;28;20056;-77
2022/05/24 02:21:25;;;;;;;7.05;4.07;;;;;;;15.86;100.00;92678.97;5050878;28;20041;-77
2022/05/24 02:23:52;;;;;;;7.32;4.70;;;;;;;15.84;99.42;92672.47;5050984;28;20655;-77
2022/05/24 02:26:22;;;;;;;7.90;4.65;;;;;;;15.68;100.00;92661.28;5051061;28;20765;-77
2022/05/24 02:28:52;;;;;;;7.30;4.78;;;;;;;15.71;98.91;92656.41;5050916;28;20459;-77
2022/05/24 02:31:22;;;;;;;7.00;4.30;;;;;;;15.67;100.00;92652.75;5050999;28;20450;-77
2022/05/24 02:33:49;;;;;;;9.13;5.60;;;;;;;15.58;100.00;92668.00;5048994;28;20051;-77
2022/05/24 02:36:18;;;;;;;9.63;6.05;;;;;;;15.61;99.73;92670.06;5050485;28;20055;-77
2022/05/24 02:38:46;;;;;;;7.03;4.93;;;;;;;15.61;100.00;92669.31;5050488;28;20041;-77
2022/05/24 02:41:31;;;;;;;8.00;5.35;;;;;;;15.67;99.00;92691.59;5050638;28;20044;-77
2022/05/24 02:43:59;;;;;;;8.18;4.93;;;;;;;15.60;100.00;92696.22;5049906;28;20481;-77
2022/05/24 02:46:31;;;;;;;8.05;5.30;;;;;;;15.42;100.00;92690.44;5050228;28;20056;-78
2022/05/24 02:48:58;;;;;;;10.00;5.63;;;;;;;15.47;100.00;92700.81;5050667;28;20049;-78
2022/05/24 02:51:26;;;;;;;7.20;5.22;;;;;;;15.50;100.00;92699.53;5050647;28;20060;-77
2022/05/24 02:53:53;;;;;;;10.48;5.30;;;;;;;15.53;100.00;92693.88;5048879;28;20127;-77
2022/05/24 02:56:21;;;;;;;7.30;5.45;;;;;;;15.56;100.00;92692.59;5048733;28;20123;-77
2022/05/24 02:58:48;;;;;;;12.70;5.93;;;;;;;15.55;100.00;92689.22;5050286;28;20048;-77
2022/05/24 03:01:19;;;;;;;8.35;4.78;;;;;;;15.57;100.00;92699.31;5050149;28;20052;-77
2022/05/24 03:03:49;;;;;;;8.02;5.03;;;;;;;15.58;100.00;92703.47;5050315;28;20076;-77
2022/05/24 03:06:17;;;;;;;6.78;5.38;;;;;;;15.58;100.00;92695.69;5049945;28;20057;-77
2022/05/24 03:14:14;;;;;;;9.10;5.65;;;;;;;15.61;100.00;92679.66;5046395;28;20076;-77
2022/05/24 03:14:16;;;;;;;9.82;4.60;;;;;;;15.56;100.00;92690.00;5047514;28;20106;-76
2022/05/24 03:16:46;;;;;;;8.15;5.28;;;;;;;15.57;100.00;92696.72;5049905;28;20044;-77
2022/05/24 03:19:14;;;;;;;7.57;4.60;;;;;;;15.56;100.00;92705.53;5047420;28;20045;-77
2022/05/24 03:21:43;;;;;;;9.93;5.95;;;;;;;15.24;100.00;92678.75;5044260;28;20056;-77
2022/05/24 03:24:10;;;;;;;7.57;5.38;;;;;;;15.41;100.00;92698.47;5048978;28;20044;-77
2022/05/24 03:26:37;;;;;;;9.90;5.72;;;;;;;15.36;100.00;92673.34;5049901;28;20049;-77
2022/05/24 03:29:04;;;;;;;6.55;4.97;;;;;;;15.55;100.00;92691.03;5049691;28;20412;-77
2022/05/24 03:31:31;;;;;;;10.73;5.05;;;;;;;15.55;100.00;92681.44;5049473;28;20044;-77
2022/05/24 03:33:58;;;;;;;13.63;5.93;;;;;;;15.64;100.00;92689.50;5049821;28;20422;-77
2022/05/24 03:36:26;;;;;;;12.57;5.10;;;;;;;15.68;100.00;92687.97;5049665;28;20046;-77
2022/05/24 03:38:53;;;;;;;13.85;7.13;;;;;;;15.61;100.00;92684.84;5047241;28;20052;-77
2022/05/24 03:41:20;;;;;;;14.13;6.68;;;;;;;15.67;100.00;92673.47;5049366;28;20094;-77
2022/05/24 03:43:46;;;;;;;9.38;6.35;;;;;;;15.69;100.00;92686.16;5049618;28;20472;-77
2022/05/24 03:46:13;;;;;;;9.88;6.07;;;;;;;15.66;100.00;92690.03;5049362;28;20053;-77
2022/05/24 03:48:40;;;;;;;13.35;6.65;;;;;;;15.67;100.00;92675.25;5049349;28;20048;-76
2022/05/24 03:51:07;;;;;;;10.13;5.90;;;;;;;15.58;100.00;92662.81;5049615;28;20044;-76
2022/05/24 03:53:36;;;;;;;9.82;6.30;;;;;;;15.75;100.00;92683.31;5049117;28;20053;-76
2022/05/24 03:56:03;;;;;;;16.50;7.57;;;;;;;15.75;100.00;92685.16;5049212;28;20049;-78
2022/05/24 03:58:31;;;;;;;16.10;7.05;;;;;;;15.82;100.00;92690.06;5048766;28;20045;-77
2022/05/24 04:00:58;;;;;;;13.32;5.97;;;;;;;15.82;100.00;92688.25;5048965;28;20045;-77
2022/05/24 04:03:25;;;;;;;10.32;6.35;;;;;;;15.84;100.00;92690.59;5048960;28;20045;-77
2022/05/24 04:05:52;;;;;;;8.77;4.93;;;;;;;15.84;99.90;92701.72;5048639;28;20049;-77
2022/05/24 04:08:24;;;;;;;7.93;5.63;;;;;;;15.83;100.00;92697.59;5049179;28;20045;-77
2022/05/24 04:10:59;;;;;;;9.80;5.13;;;;;;;15.87;100.00;92700.44;5048900;28;20041;-77
2022/05/24 04:13:25;;;;;;;10.30;5.53;;;;;;;15.93;100.00;92709.84;5039181;28;20085;-77
2022/05/24 04:15:52;;;;;;;15.02;7.30;;;;;;;15.99;100.00;92713.19;5036933;28;20052;-77
2022/05/24 04:18:19;;;;;;;9.15;5.90;;;;;;;15.83;100.00;92687.22;5045143;28;20420;-77
2022/05/24 04:20:46;;;;;;;9.27;5.75;;;;;;;16.14;98.71;92722.81;5048257;28;20412;-77
2022/05/24 04:23:14;;;;;;;11.80;6.32;;;;;;;16.21;99.70;92723.38;5046106;28;20076;-77
2022/05/24 04:25:42;;;;;;;12.02;5.70;;;;;;;16.29;98.77;92722.84;5047433;28;20041;-77
2022/05/24 04:28:10;;;;;;;10.05;6.43;;;;;;;16.26;99.54;92718.16;5047805;28;20053;-77
2022/05/24 04:30:37;;;;;;;11.30;6.65;;;;;;;16.30;100.00;92718.47;5048125;28;20128;-78
2022/05/24 04:33:04;;;;;;;9.70;6.35;;;;;;;16.34;100.00;92716.13;5048121;28;20045;-78
2022/05/24 04:35:31;;;;;;;9.23;6.15;;;;;;;16.35;98.91;92712.50;5046533;28;20052;-77
2022/05/24 04:38:00;;;;;;;8.95;5.90;;;;;;;16.40;98.99;92710.66;5047443;28;20056;-76
2022/05/24 04:43:07;;;;;;;7.45;5.82;;;;;;;16.32;100.00;92713.78;5046915;28;20048;-77
2022/05/24 04:45:36;;;;;;;8.65;5.80;;;;;;;16.43;98.47;92717.16;5047829;28;20041;-77
2022/05/24 04:48:03;;;;;;;10.48;5.30;;;;;;;16.37;97.35;92723.38;5047670;28;20045;-77
2022/05/24 04:50:30;;;;;;;8.30;5.07;;;;;;;16.31;98.01;92725.19;5047570;28;20045;-77
2022/05/24 04:52:56;;;;;;;6.18;4.75;;;;;;;16.25;98.83;92711.44;5047672;28;20058;-77
2022/05/24 04:55:26;;;;;;;7.88;5.40;;;;;;;16.43;98.15;92723.13;5047265;28;20048;-77
2022/05/24 04:57:53;;;;;;;11.35;5.38;;;;;;;16.48;98.67;92730.13;5045973;28;20060;-77
2022/05/24 05:00:21;;;;;;;9.23;5.18;;;;;;;16.68;96.80;92736.38;5047407;28;20041;-77
2022/05/24 05:02:49;;;;;;;6.90;4.88;;;;;;;16.89;96.95;92737.16;5046484;28;20492;-77
2022/05/24 05:05:16;;;;;;;9.20;6.45;;;;;;;16.97;98.38;92733.25;5047048;28;20044;-77
2022/05/24 05:07:43;;;;;;;10.77;6.25;;;;;;;17.14;96.14;92735.59;5047190;28;20092;-77
2022/05/24 05:10:11;;;;;;;13.82;7.80;;;;;;;17.19;98.13;92732.22;5046116;28;20041;-77
2022/05/24 05:12:38;;;;;;;16.63;8.13;;;;;;;17.24;98.54;92737.41;5047069;28;20052;-77
2022/05/24 05:15:07;;;;;;;15.57;8.48;;;;;;;17.15;100.00;92736.38;5046555;28;20405;-77
2022/05/24 05:17:34;;;;;;;25.60;11.05;;;;;;;17.09;100.00;92733.78;5046691;28;20093;-77
2022/05/24 05:20:02;;;;;;;24.30;10.63;;;;;;;17.07;99.73;92717.69;5047372;28;20041;-77
2022/05/24 05:22:29;;;;;;;27.60;11.13;;;;;;;17.17;99.26;92731.72;5047597;28;20423;-77
2022/05/24 05:24:56;;;;;;;29.48;11.27;;;;;;;17.16;99.22;92714.56;5047941;28;20049;-77
2022/05/24 05:27:22;;;;;;;21.98;10.10;;;;;;;17.15;97.38;92690.44;5045964;28;20508;-77
2022/05/24 05:32:34;;;;;;;19.67;9.02;;;;;;;17.68;98.71;92735.97;5047115;28;20083;-77
2022/05/24 05:35:02;;;;;;;29.83;10.02;;;;;;;17.63;97.44;92713.41;5047390;28;20393;-79
2022/05/24 05:37:31;;;;;;;21.02;10.18;;;;;;;18.07;95.71;92741.56;5046382;28;20500;-78
2022/05/24 05:39:58;;;;;;;24.88;9.20;;;;;;;18.31;93.71;92736.50;5047438;28;20045;-78
2022/05/24 05:42:25;;;;;;;24.73;9.10;;;;;;;18.40;91.06;92739.31;5047456;28;20542;-78
2022/05/24 05:44:52;;;;;;;20.98;8.25;;;;;;;18.43;91.00;92716.13;5045476;28;20045;-78
2022/05/24 05:47:19;;;;;;;17.98;7.82;;;;;;;18.55;87.60;92741.81;5047401;28;20049;-79
2022/05/24 05:49:46;;;;;;;16.98;7.18;;;;;;;18.60;88.73;92740.22;5047435;28;20056;-78
2022/05/24 05:52:15;;;;;;;20.17;8.82;;;;;;;18.51;90.60;92743.41;5047345;28;20056;-78
2022/05/24 05:54:42;;;;;;;19.00;7.95;;;;;;;18.63;90.38;92737.88;5047475;28;20049;-78
2022/05/24 05:57:10;;;;;;;20.88;9.00;;;;;;;18.86;91.16;92737.41;5045635;28;20045;-78
2022/05/24 05:59:37;;;;;;;18.63;7.97;;;;;;;19.22;87.19;92753.53;5045247;28;20500;-78
2022/05/24 06:02:05;;;;;;;19.60;7.57;;;;;;;19.17;85.20;92737.97;5047592;28;20041;-78
2022/05/24 06:04:37;;;;;;;18.23;7.78;;;;;;;19.70;86.45;92764.28;5047400;28;20049;-79
2022/05/24 06:07:05;;;;;;;20.00;8.93;;;;;;;19.97;83.54;92760.34;5047300;28;20424;-78
2022/05/24 06:09:33;;;;;;;20.08;9.05;;;;;;;20.07;83.99;92769.88;5047121;28;20439;-81
2022/05/24 06:12:00;;;;;;;24.77;8.48;;;;;;;20.32;82.84;92765.41;5042965;28;20048;-80
2022/05/24 06:14:27;;;;;;;28.85;8.93;;;;;;;20.05;83.66;92764.19;5045139;28;20136;-80
2022/05/24 06:16:54;;;;;;;18.85;8.35;;;;;;;20.51;82.63;92781.81;5045385;28;20064;-80
2022/05/24 06:19:21;;;;;;;19.45;8.05;;;;;;;20.94;79.70;92783.59;5047266;28;20053;-80
2022/05/24 06:21:51;;;;;;;16.70;8.00;;;;;;;21.47;77.31;92779.09;5047368;28;20119;-79
2022/05/24 06:24:17;;;;;;;18.50;7.68;;;;;;;21.45;73.91;92775.22;5046985;28;20044;-79
2022/05/24 06:26:46;;;;;;;21.88;7.75;;;;;;;21.59;74.42;92781.25;5047267;28;20056;-79
2022/05/24 06:29:12;;;;;;;18.98;8.35;;;;;;;21.57;72.61;92782.59;5047043;28;20045;-79
2022/05/24 06:31:42;;;;;;;28.27;8.55;;;;;;;21.68;73.69;92778.72;5045022;28;20056;-79
2022/05/24 06:34:08;;;;;;;20.70;8.05;;;;;;;22.10;72.52;92763.06;5045040;28;20900;-80
2022/05/24 06:36:35;;;;;;;23.02;8.88;;;;;;;22.73;69.17;92785.31;5046946;28;20067;-80
2022/05/24 06:39:02;;;;;;;23.77;7.22;;;;;;;23.17;66.51;92765.44;5047191;28;20048;-80
2022/05/24 06:41:29;;;;;;;35.05;14.88;;;;;;;23.65;63.67;92765.09;5046945;28;20556;-79
2022/05/24 06:43:57;;;;;;;22.10;7.43;;;;;;;23.88;58.92;92771.78;5045352;28;20053;-79
2022/05/24 06:46:24;;;;;;;20.90;7.32;;;;;;;24.19;60.50;92774.66;5047059;28;20057;-80
2022/05/24 06:48:51;;;;;;;20.80;7.70;;;;;;;24.32;59.34;92770.38;5047580;28;20045;-79
2022/05/24 06:51:20;;;;;;;25.83;8.90;;;;;;;24.31;59.13;92774.09;5050661;28;20095;-80
2022/05/24 06:53:49;;;;;;;26.27;11.00;;;;;;;24.57;58.91;92755.72;5050280;28;20052;-80
2022/05/24 06:56:17;;;;;;;27.23;11.35;;;;;;;25.06;57.46;92770.56;5050147;28;20059;-80
2022/05/24 06:58:43;;;;;;;17.92;7.55;;;;;;;25.47;55.66;92776.38;5050748;28;20045;-80
2022/05/24 07:03:58;;;;;;;16.65;6.00;;;;;;;25.98;51.65;92762.56;5050717;28;20575;-81
2022/05/24 07:06:26;;;;;;;13.00;5.05;;;;;;;26.32;50.88;92765.34;5050402;28;20053;-80
2022/05/24 07:08:53;;;;;;;11.45;5.53;;;;;;;26.56;49.54;92754.19;5050391;28;20041;-79
2022/05/24 07:11:22;;;;;;;8.57;4.22;;;;;;;26.88;47.56;92767.72;5050172;28;20048;-77
2022/05/24 07:13:49;;;;;;;9.70;4.80;;;;;;;26.87;47.83;92758.28;5048233;28;20041;-78
2022/05/24 07:16:17;;;;;;;10.80;4.57;;;;;;;26.94;48.70;92765.69;5050124;28;20049;-77
2022/05/24 07:18:44;;;;;;;12.27;4.40;;;;;;;26.99;47.96;92773.41;5049953;28;20056;-77
2022/05/24 07:21:11;;;;;;;11.27;4.05;;;;;;;27.04;48.39;92761.88;5049797;28;20052;-78
2022/05/24 07:23:38;;;;;;;6.13;3.90;;;;;;;26.99;48.05;92762.88;5050005;28;20045;-77
2022/05/24 07:26:13;;;;;;;6.53;4.28;;;;;;;27.08;48.72;92760.91;5048208;28;20114;-77
2022/05/24 07:28:39;;;;;;;8.07;3.97;;;;;;;27.20;48.36;92764.66;5048301;28;20053;-77
2022/05/24 07:31:07;;;;;;;5.75;4.07;;;;;;;26.98;48.71;92761.31;5047753;28;20041;-79
2022/05/24 07:33:36;;;;;;;9.70;3.97;;;;;;;27.03;48.51;92750.56;5049930;28;20049;-79
2022/05/24 07:36:03;;;;;;;8.35;3.70;;;;;;;27.17;47.95;92738.97;5049549;28;20492;-79
2022/05/24 07:38:30;;;;;;;6.05;3.92;;;;;;;27.12;47.80;92755.00;5049987;28;20122;-79
2022/05/24 07:46:26;;;;;;;7.13;4.10;;;;;;;26.87;48.61;92762.75;5047815;28;20051;-79
2022/05/24 07:48:55;;;;;;;8.35;4.38;;;;;;;26.84;48.85;92751.00;5047695;28;20053;-79
2022/05/24 07:51:21;;;;;;;8.88;3.90;;;;;;;26.98;48.29;92750.75;5049658;28;20044;-80
2022/05/24 07:53:48;;;;;;;8.30;3.97;;;;;;;27.04;48.31;92743.44;5049507;28;20064;-78
2022/05/24 07:56:18;;;;;;;7.78;4.05;;;;;;;27.28;48.72;92763.03;5049194;28;20090;-79
2022/05/24 07:58:45;;;;;;;6.53;3.60;;;;;;;27.51;47.67;92763.44;5049493;28;20474;-80
2022/05/24 08:01:14;;;;;;;6.50;3.80;;;;;;;27.77;48.00;92761.59;5048262;28;20102;-76
2022/05/24 08:03:41;;;;;;;6.95;3.58;;;;;;;27.83;46.71;92755.00;5047553;28;20488;-77
2022/05/24 08:06:10;;;;;;;6.00;3.83;;;;;;;27.61;45.17;92747.19;5049238;28;20068;-77
2022/05/24 08:08:37;;;;;;;7.28;4.28;;;;;;;27.83;45.37;92755.00;5048763;28;20056;-76
2022/05/24 08:11:05;;;;;;;6.13;3.58;;;;;;;28.18;45.16;92751.16;5048908;28;20428;-77
2022/05/24 08:13:32;;;;;;;5.82;3.33;;;;;;;28.30;45.31;92756.44;5048683;28;20057;-77
2022/05/24 08:15:59;;;;;;;7.85;3.60;;;;;;;28.55;44.50;92751.09;5048699;28;20053;-77
2022/05/24 08:18:26;;;;;;;8.30;4.20;;;;;;;28.72;44.34;92742.13;5047123;28;20443;-78
2022/05/24 08:20:54;;;;;;;6.15;4.30;;;;;;;28.96;43.94;92760.91;5048270;28;20094;-76
2022/05/24 08:23:24;;;;;;;8.50;3.67;;;;;;;29.10;42.92;92756.00;5046181;28;20048;-75
2022/05/24 08:25:51;;;;;;;6.20;3.13;;;;;;;28.98;43.14;92756.84;5048577;28;20049;-76
2022/05/24 08:28:18;;;;;;;6.63;3.67;;;;;;;29.27;43.26;92749.63;5044731;28;20051;-76
2022/05/24 08:30:46;;;;;;;5.57;3.38;;;;;;;29.20;42.71;92752.84;5048480;28;20040;-74
2022/05/24 08:33:15;;;;;;;5.93;2.88;;;;;;;29.10;42.54;92742.00;5048216;28;20073;-75
2022/05/24 08:35:44;;;;;;;5.53;3.67;;;;;;;29.36;43.29;92752.13;5048200;28;20459;-75
2022/05/24 08:38:13;;;;;;;10.18;4.78;;;;;;;29.36;42.24;92730.94;5048012;28;20132;-75
2022/05/24 08:40:44;;;;;;;11.73;4.22;;;;;;;29.78;42.16;92750.09;5048119;28;20477;-76
2022/05/24 08:43:41;;;;;;;4.95;3.33;;;;;;;29.73;42.08;92737.91;5048414;28;20049;-75
2022/05/24 08:49:03;;;;;;;4.72;3.10;;;;;;;30.15;40.80;92755.13;5047598;28;20134;-76
2022/05/24 08:51:34;;;;;;;8.25;3.53;;;;;;;29.87;40.79;92742.75;5046098;28;20041;-76
2022/05/24 08:54:08;;;;;;;8.27;3.65;;;;;;;30.11;40.78;92741.03;5045861;28;20132;-76
2022/05/24 08:56:42;;;;;;;6.97;3.78;;;;;;;30.03;41.04;92749.91;5046821;28;20053;-76
2022/05/24 08:59:17;;;;;;;5.88;3.72;;;;;;;30.17;41.22;92755.53;5048066;28;20228;-75
2022/05/24 09:01:46;;;;;;;5.47;3.70;;;;;;;30.29;41.10;92749.38;5048085;28;20139;-76
2022/05/24 09:04:14;;;;;;;7.82;3.75;;;;;;;30.51;41.27;92760.44;5047804;28;20064;-75
2022/05/24 09:06:46;;;;;;;7.75;3.50;;;;;;;30.74;40.45;92760.53;5047833;28;20059;-75
2022/05/24 09:09:40;;;;;;;11.27;4.70;;;;;;;30.84;40.05;92748.59;5048147;28;20048;-76
2022/05/24 09:12:24;;;;;;;6.82;3.75;;;;;;;30.86;40.06;92743.72;5046128;28;20128;-76
2022/05/24 09:15:01;;;;;;;7.33;4.07;;;;;;;30.85;39.94;92746.72;5046486;28;20041;-75
2022/05/24 09:18:05;;;;;;;5.50;3.55;;;;;;;30.79;40.33;92725.03;5047101;28;20787;-76
2022/05/24 09:20:34;;;;;;;;;;;;;;;31.03;39.78;92745.19;5048230;28;20411;-76
2022/05/24 09:23:06;;;;;;;7.15;4.00;;;;;;;31.07;40.23;92738.03;5042570;28;19924;-76
2022/05/24 09:25:33;;;;;;;5.50;3.63;;;;;;;31.10;39.40;92744.53;5043781;28;20049;-76
2022/05/24 09:28:01;;;;;;;6.82;3.70;;;;;;;30.96;39.16;92734.41;5047506;28;20053;-76
2022/05/24 09:30:41;;;;;;;6.80;3.63;;;;;;;30.92;39.80;92738.91;5047529;28;20769;-76
2022/05/24 09:33:26;;;;;;;7.72;3.97;;;;;;;30.95;38.09;92737.44;5045922;28;20052;-76
2022/05/24 09:36:00;;;;;;;6.90;4.10;;;;;;;30.94;38.88;92728.72;5045752;28;20069;-76
2022/05/24 09:38:34;;;;;;;9.90;3.78;;;;;;;30.67;40.06;92739.94;5046290;28;20659;-75
2022/05/24 09:41:10;;;;;;;5.82;3.70;;;;;;;30.71;38.58;92728.63;5047486;28;20056;-75
2022/05/24 09:43:40;;;;;;;7.82;4.45;;;;;;;30.52;40.62;92732.81;5045320;28;20618;-75
2022/05/24 09:46:11;;;;;;;7.80;4.20;;;;;;;30.36;40.26;92727.56;5045630;28;20091;-75
2022/05/24 09:48:51;;;;;;;6.50;3.78;;;;;;;30.47;40.74;92738.38;5045800;28;20542;-75
2022/05/24 09:51:25;;;;;;;8.05;3.97;;;;;;;30.39;40.25;92730.28;5046632;28;20427;-75
2022/05/24 09:53:55;;;;;;;6.00;4.00;;;;;;;30.24;40.64;92731.88;5045357;28;20062;-76
2022/05/24 09:56:24;;;;;;;10.35;4.40;;;;;;;30.35;40.73;92732.09;5045430;28;20289;-76
2022/05/24 09:58:55;;;;;;;8.73;4.35;;;;;;;30.34;41.31;92732.44;5045189;28;20053;-76
2022/05/24 10:01:35;;;;;;;6.85;3.58;;;;;;;30.35;41.21;92729.44;5045452;28;20049;-76
2022/05/24 10:04:13;;;;;;;7.50;3.60;;;;;;;30.42;41.09;92728.81;5046358;28;20053;-76
2022/05/24 10:06:42;;;;;;;10.00;4.13;;;;;;;30.57;40.50;92732.53;5045320;28;20492;-76
2022/05/24 10:09:33;;;;;;;9.35;3.70;;;;;;;30.71;39.55;92728.63;5045331;28;20057;-76
2022/05/24 10:12:09;;;;;;;12.45;4.93;;;;;;;30.87;40.20;92726.69;5045898;28;20526;-76
2022/05/24 10:14:43;;;;;;;9.00;3.90;;;;;;;31.09;39.88;92726.31;5047033;28;20530;-76
2022/05/24 10:17:20;;;;;;;5.35;3.80;;;;;;;31.18;38.65;92729.50;5044853;28;20095;-76
2022/05/24 10:20:00;;;;;;;6.18;4.18;;;;;;;31.31;38.16;92733.56;5045735;28;20504;-75
2022/05/24 10:22:39;;;;;;;7.45;3.88;;;;;;;31.17;37.76;92731.41;5045259;28;20047;-77
2022/05/24 10:25:13;;;;;;;7.22;4.20;;;;;;;31.28;38.95;92725.56;5049268;28;20044;-76
2022/05/24 10:27:54;;;;;;;6.13;3.93;;;;;;;30.63;39.01;92686.06;5051026;28;20064;-75
2022/05/24 10:30:27;;;;;;;7.75;4.47;;;;;;;30.61;39.34;92712.16;5049907;28;20048;-76
2022/05/24 10:39:02;;;;;;;9.35;3.47;;;;;;;30.54;40.49;92712.00;5047513;28;20055;-76
2022/05/24 10:41:39;;;;;;;7.57;4.07;;;;;;;30.58;40.76;92704.16;5049092;28;20052;-75
2022/05/24 10:44:13;;;;;;;6.95;3.88;;;;;;;30.85;39.87;92709.59;5050178;28;20064;-77
2022/05/24 10:46:45;;;;;;;10.55;3.55;;;;;;;30.95;40.47;92679.09;5051238;28;20076;-77
2022/05/24 10:49:20;;;;;;;7.85;4.20;;;;;;;31.18;38.94;92689.72;5050188;28;20492;-76
2022/05/24 10:51:52;;;;;;;6.78;3.40;;;;;;;31.39;38.73;92696.53;5050566;28;20041;-77
2022/05/24 10:54:30;;;;;;;8.50;3.78;;;;;;;31.30;38.48;92694.13;5048293;28;20045;-77
2022/05/24 10:57:04;;;;;;;8.13;3.67;;;;;;;31.45;38.75;92697.75;5049371;28;20044;-76
2022/05/24 10:59:42;;;;;;;8.35;4.43;;;;;;;31.58;38.41;92704.44;5050016;28;20633;-78
2022/05/24 11:02:19;;;;;;;6.10;3.80;;;;;;;30.86;39.23;92698.63;5049043;28;20474;-76
2022/05/24 11:04:50;;;;;;;6.40;4.10;;;;;;;31.09;39.90;92703.22;5005266;28;20069;-78
2022/05/24 11:07:19;;;;;;;8.75;3.80;;;;;;;31.29;39.21;92703.94;5009439;28;20112;-77
2022/05/24 11:09:55;;;;;;;6.38;3.63;;;;;;;31.28;37.76;92689.16;5019705;28;20058;-77
2022/05/24 11:12:29;;;;;;;9.02;4.05;;;;;;;31.38;38.18;92695.75;5021622;28;20042;-79
2022/05/24 11:15:02;;;;;;;6.18;3.83;;;;;;;31.36;38.89;92660.84;5019606;28;20056;-79
2022/05/24 11:17:30;;;;;;;8.75;3.97;;;;;;;31.35;39.47;92653.25;5019640;28;20760;-78
2022/05/24 11:19:59;;;;;;;9.80;4.32;;;;;;;31.52;37.90;92668.66;5019376;28;20053;-78
2022/05/24 11:22:32;;;;;;;8.05;3.92;;;;;;;31.64;38.52;92667.72;5019450;28;20045;-78
2022/05/24 11:25:06;;;;;;;5.38;3.28;;;;;;;31.53;38.76;92641.03;5020255;28;20046;-78
2022/05/24 11:27:37;;;;;;;7.03;3.85;;;;;;;31.55;37.17;92662.66;5019207;28;20461;-79
2022/05/24 11:30:13;;;;;;;8.85;4.75;;;;;;;31.71;38.14;92670.47;5018297;28;20053;-78
2022/05/24 11:32:45;;;;;;;7.85;3.70;;;;;;;31.71;38.39;92654.53;5019680;28;20488;-78
2022/05/24 11:35:24;;;;;;;9.23;3.67;;;;;;;31.79;37.68;92668.69;5019543;28;21238;-78
2022/05/24 11:37:55;;;;;;;8.00;4.28;;;;;;;31.83;37.88;92655.47;5020722;28;20073;-78
2022/05/24 11:40:40;;;;;;;7.72;4.20;;;;;;;31.90;38.17;92641.56;5018735;28;20053;-78
2022/05/24 11:43:09;;;;;;;6.63;3.25;;;;;;;32.04;38.53;92651.59;5021131;28;20061;-77
2022/05/24 11:45:59;;;;;;;8.45;4.32;;;;;;;32.17;37.54;92642.28;5021805;28;20041;-78
2022/05/24 11:48:48;;;;;;;7.15;3.53;;;;;;;32.33;35.47;92649.28;5018681;28;20046;-78
2022/05/24 11:51:39;;;;;;;9.07;3.20;;;;;;;32.63;36.69;92638.63;5019289;28;20493;-78
2022/05/24 12:00:57;;;;;;;5.15;3.67;;;;;;;32.63;36.96;92625.34;5025533;28;20098;-78
2022/05/24 12:09:54;;;;;;;11.07;3.80;;;;;;;32.44;36.34;92625.53;5022654;28;20053;-78
2022/05/24 12:12:29;;;;;;;6.82;3.28;;;;;;;32.22;35.91;92625.25;5027294;28;20099;-78
2022/05/24 12:15:10;;;;;;;7.00;3.60;;;;;;;31.40;35.93;92615.78;5028609;28;20037;-77
2022/05/24 12:17:36;;;;;;;7.18;2.90;;;;;;;31.49;38.45;92605.69;5028598;28;20053;-78
2022/05/24 12:20:04;;;;;;;8.70;3.85;;;;;;;31.88;37.67;92606.63;5018649;28;20650;-78
2022/05/24 12:22:51;;;;;;;8.65;3.67;;;;;;;31.93;36.19;92611.63;5018153;28;20136;-79
2022/05/24 14:31:12;;;;;;;5.30;2.05;;;;;;;30.75;31.51;92605.66;4240250;28;20052;-78